createdAt,value
2022-09-07T00:01:16.755Z,18.90
2022-09-07T00:03:44.067Z,18.90
2022-09-07T00:06:13.263Z,19.00
2022-09-07T00:08:43.803Z,19.10
2022-09-07T00:11:17.951Z,19.00
2022-09-07T00:13:48.057Z,19.10
2022-09-07T00:16:35.435Z,19.00
2022-09-07T00:19:04.564Z,19.00
2022-09-07T00:21:32.356Z,18.90
2022-09-07T00:24:02.592Z,19.10
2022-09-07T00:26:31.003Z,19.30
2022-09-07T00:29:00.854Z,19.30
2022-09-07T00:31:30.266Z,19.30
2022-09-07T00:34:01.077Z,19.30
2022-09-07T00:36:31.513Z,19.10
2022-09-07T00:38:59.096Z,19.10
2022-09-07T00:41:26.198Z,19.20
2022-09-07T00:43:57.461Z,19.20
2022-09-07T00:46:30.864Z,19.10
2022-09-07T00:49:16.755Z,19.10
2022-09-07T00:51:52.579Z,19.10
2022-09-07T00:54:25.533Z,19.00
2022-09-07T00:56:53.810Z,18.90
2022-09-07T00:59:29.349Z,18.90
2022-09-07T01:01:56.724Z,19.00
2022-09-07T01:04:24.874Z,18.90
2022-09-07T01:06:51.963Z,18.90
2022-09-07T01:09:22.406Z,18.90
2022-09-07T01:11:51.388Z,18.80
2022-09-07T01:14:26.613Z,18.80
2022-09-07T01:17:34.109Z,18.80
2022-09-07T01:20:36.213Z,18.80
2022-09-07T01:24:05.177Z,18.80
2022-09-07T01:27:09.681Z,18.80
2022-09-07T01:30:07.168Z,18.80
2022-09-07T01:33:10.495Z,18.80
2022-09-07T01:36:03.789Z,18.70
2022-09-07T01:38:38.896Z,18.80
2022-09-07T01:41:41.712Z,18.80
2022-09-07T01:44:26.224Z,18.80
2022-09-07T01:47:31.275Z,18.80
2022-09-07T01:50:13.321Z,18.70
2022-09-07T01:52:55.510Z,18.70
2022-09-07T01:55:30.530Z,18.70
2022-09-07T01:58:20.989Z,18.80
2022-09-07T02:01:11.584Z,18.80
2022-09-07T02:03:52.685Z,18.90
2022-09-07T02:06:41.119Z,18.80
2022-09-07T02:09:40.974Z,18.80
2022-09-07T02:12:15.895Z,18.80
2022-09-07T02:14:52.361Z,18.70
2022-09-07T02:17:34.156Z,18.80
2022-09-07T02:20:23.827Z,18.70
2022-09-07T02:22:57.887Z,18.80
2022-09-07T02:25:30.546Z,18.80
2022-09-07T02:28:10.678Z,18.70
2022-09-07T02:30:37.846Z,18.70
2022-09-07T02:33:05.157Z,18.60
2022-09-07T02:35:32.902Z,18.70
2022-09-07T02:38:03.816Z,18.70
2022-09-07T02:40:31.451Z,18.70
2022-09-07T02:43:05.430Z,18.70
2022-09-07T02:46:03.867Z,18.70
2022-09-07T02:49:01.698Z,18.70
2022-09-07T02:52:00.428Z,18.80
2022-09-07T02:54:37.868Z,18.70
2022-09-07T02:57:13.526Z,18.70
2022-09-07T03:00:26.383Z,18.60
2022-09-07T03:03:26.682Z,18.60
2022-09-07T03:06:00.682Z,18.60
2022-09-07T03:08:55.358Z,18.60
2022-09-07T03:11:23.181Z,18.60
2022-09-07T03:13:50.295Z,18.70
2022-09-07T03:16:17.481Z,18.60
2022-09-07T03:18:44.841Z,18.60
2022-09-07T03:21:12.176Z,18.60
2022-09-07T03:23:39.633Z,18.60
2022-09-07T03:26:06.840Z,18.50
2022-09-07T03:28:34.217Z,18.60
2022-09-07T03:31:03.420Z,18.60
2022-09-07T03:33:34.414Z,18.50
2022-09-07T03:36:02.609Z,18.60
2022-09-07T03:38:31.240Z,18.50
2022-09-07T03:41:04.085Z,18.50
2022-09-07T03:43:34.531Z,18.50
2022-09-07T03:46:04.732Z,18.50
2022-09-07T03:48:33.950Z,18.50
2022-09-07T03:51:07.753Z,18.50
2022-09-07T03:53:40.490Z,18.60
2022-09-07T03:56:20.625Z,18.60
2022-09-07T03:58:49.019Z,18.50
2022-09-07T04:01:20.052Z,18.60
2022-09-07T04:03:48.144Z,18.60
2022-09-07T04:06:16.157Z,18.60
2022-09-07T04:08:43.885Z,18.60
2022-09-07T04:11:14.880Z,18.50
2022-09-07T04:13:42.330Z,18.50
2022-09-07T04:16:12.116Z,18.40
2022-09-07T04:18:40.009Z,18.40
2022-09-07T04:21:07.406Z,18.40
2022-09-07T04:23:34.444Z,18.40
2022-09-07T04:26:01.666Z,18.30
2022-09-07T04:28:30.980Z,18.30
2022-09-07T04:31:04.270Z,18.30
2022-09-07T04:33:32.750Z,18.30
2022-09-07T04:36:01.375Z,18.30
2022-09-07T04:38:31.811Z,18.30
2022-09-07T04:41:09.581Z,18.30
2022-09-07T04:43:38.091Z,18.20
2022-09-07T04:46:19.662Z,18.30
2022-09-07T04:48:51.141Z,18.20
2022-09-07T04:51:18.688Z,18.20
2022-09-07T04:53:48.146Z,18.30
2022-09-07T04:56:17.037Z,18.40
2022-09-07T04:58:45.266Z,18.40
2022-09-07T05:01:13.854Z,18.30
2022-09-07T05:03:41.960Z,18.30
2022-09-07T05:06:09.356Z,18.20
2022-09-07T05:08:41.666Z,18.20
2022-09-07T05:11:09.378Z,18.20
2022-09-07T05:13:36.782Z,18.20
2022-09-07T05:16:12.528Z,18.20
2022-09-07T05:18:39.643Z,18.20
2022-09-07T05:21:13.699Z,18.20
2022-09-07T05:23:40.961Z,18.20
2022-09-07T05:26:08.370Z,18.20
2022-09-07T05:28:35.974Z,18.00
2022-09-07T05:31:19.219Z,18.00
2022-09-07T05:36:41.653Z,18.10
2022-09-07T05:39:08.989Z,18.20
2022-09-07T05:41:36.146Z,18.20
2022-09-07T05:46:53.377Z,18.20
2022-09-07T05:49:20.709Z,18.20
2022-09-07T05:51:48.406Z,18.00
2022-09-07T05:54:15.367Z,17.90
2022-09-07T05:56:42.568Z,18.00
2022-09-07T05:59:09.585Z,17.80
2022-09-07T06:01:36.592Z,17.90
2022-09-07T06:04:04.044Z,18.00
2022-09-07T06:06:31.305Z,18.00
2022-09-07T06:09:00.655Z,18.10
2022-09-07T06:11:28.019Z,17.90
2022-09-07T06:13:55.908Z,18.10
2022-09-07T06:16:23.084Z,18.20
2022-09-07T06:18:50.593Z,18.20
2022-09-07T06:21:21.015Z,18.10
2022-09-07T06:23:49.383Z,17.80
2022-09-07T06:26:17.786Z,17.90
2022-09-07T06:28:50.174Z,17.90
2022-09-07T06:31:23.680Z,17.90
2022-09-07T06:33:51.946Z,17.90
2022-09-07T06:36:25.570Z,18.00
2022-09-07T06:38:52.754Z,18.00
2022-09-07T06:44:09.826Z,17.90
2022-09-07T06:49:25.065Z,18.00
2022-09-07T06:51:52.136Z,18.00
2022-09-07T06:57:09.384Z,18.00
2022-09-07T06:59:37.332Z,17.90
2022-09-07T07:02:06.461Z,17.80
2022-09-07T07:04:39.490Z,17.80
2022-09-07T07:07:14.119Z,18.00
2022-09-07T07:09:41.879Z,18.00
2022-09-07T07:12:10.549Z,18.20
2022-09-07T07:14:41.085Z,18.20
2022-09-07T07:17:11.621Z,18.20
2022-09-07T07:19:38.618Z,18.40
2022-09-07T07:22:23.415Z,18.30
2022-09-07T07:24:52.962Z,18.10
2022-09-07T07:27:21.645Z,18.10
2022-09-07T07:29:48.822Z,18.20
2022-09-07T07:32:16.153Z,18.10
2022-09-07T07:34:43.310Z,17.90
2022-09-07T07:37:10.295Z,17.90
2022-09-07T07:42:24.221Z,18.00
2022-09-07T07:47:38.646Z,18.40
2022-09-07T07:55:43.772Z,18.10
2022-09-07T07:58:11.024Z,18.00
2022-09-07T08:00:53.655Z,18.10
2022-09-07T08:03:23.446Z,18.30
2022-09-07T08:05:50.490Z,18.40
2022-09-07T08:08:17.694Z,18.40
2022-09-07T08:10:46.220Z,18.40
2022-09-07T08:13:14.387Z,18.80
2022-09-07T08:15:47.490Z,18.90
2022-09-07T08:18:16.568Z,19.00
2022-09-07T08:20:43.676Z,19.00
2022-09-07T08:23:10.960Z,18.90
2022-09-07T08:25:37.997Z,19.00
2022-09-07T08:28:05.441Z,18.80
2022-09-07T08:30:32.539Z,18.80
2022-09-07T08:33:02.460Z,18.60
2022-09-07T08:35:34.357Z,18.60
2022-09-07T08:38:01.562Z,18.80
2022-09-07T08:40:32.418Z,19.00
2022-09-07T08:43:26.686Z,19.10
2022-09-07T08:46:09.242Z,19.40
2022-09-07T08:48:36.547Z,19.60
2022-09-07T08:51:43.575Z,19.80
2022-09-07T08:54:16.951Z,20.00
2022-09-07T08:59:48.468Z,20.10
2022-09-07T09:02:40.240Z,20.50
2022-09-07T09:05:16.982Z,20.10
2022-09-07T09:07:53.743Z,20.00
2022-09-07T09:10:40.204Z,20.10
2022-09-07T09:13:12.747Z,20.40
2022-09-07T09:15:53.472Z,20.30
2022-09-07T09:18:39.019Z,20.30
2022-09-07T09:21:08.126Z,20.40
2022-09-07T09:23:36.982Z,20.20
2022-09-07T09:26:11.228Z,20.40
2022-09-07T09:28:39.126Z,20.60
2022-09-07T09:31:06.906Z,20.60
2022-09-07T09:33:34.029Z,20.60
2022-09-07T09:36:03.926Z,20.40
2022-09-07T09:38:39.739Z,20.60
2022-09-07T09:41:11.950Z,20.60
2022-09-07T09:43:51.962Z,20.90
2022-09-07T09:46:29.466Z,21.00
2022-09-07T09:49:00.602Z,20.90
2022-09-07T09:54:23.987Z,21.00
2022-09-07T09:56:51.072Z,21.20
2022-09-07T10:05:33.951Z,21.40
2022-09-07T10:08:13.860Z,21.00
2022-09-07T10:11:07.227Z,21.10
2022-09-07T10:13:44.148Z,21.20
2022-09-07T10:16:15.178Z,21.00
2022-09-07T10:18:56.947Z,21.20
2022-09-07T10:21:31.919Z,21.40
2022-09-07T10:24:05.983Z,21.50
2022-09-07T10:26:36.398Z,21.20
2022-09-07T10:29:17.204Z,21.10
2022-09-07T10:31:57.596Z,21.40
2022-09-07T10:34:46.439Z,21.30
2022-09-07T10:37:25.125Z,21.50
2022-09-07T10:40:29.157Z,21.40
2022-09-07T10:43:23.020Z,21.40
2022-09-07T10:46:56.330Z,21.60
2022-09-07T10:49:32.796Z,21.50
2022-09-07T10:52:30.710Z,21.20
2022-09-07T10:55:08.699Z,21.20
2022-09-07T10:58:00.638Z,21.30
2022-09-07T11:00:36.948Z,21.60
2022-09-07T11:03:36.602Z,21.40
2022-09-07T11:06:35.785Z,21.50
2022-09-07T11:09:18.608Z,21.40
2022-09-07T11:12:15.584Z,21.40
2022-09-07T11:15:09.256Z,21.40
2022-09-07T11:17:55.214Z,21.40
2022-09-07T11:20:39.618Z,21.60
2022-09-07T11:23:26.669Z,21.70
2022-09-07T11:26:11.715Z,21.90
2022-09-07T11:31:51.343Z,21.60
2022-09-07T11:34:25.334Z,21.80
2022-09-07T11:37:18.976Z,21.90
2022-09-07T11:40:04.929Z,21.90
2022-09-07T11:42:49.920Z,22.10
2022-09-07T11:45:31.918Z,22.30
2022-09-07T11:48:20.032Z,22.20
2022-09-07T11:50:50.313Z,22.30
2022-09-07T11:53:30.923Z,22.70
2022-09-07T11:56:19.684Z,22.60
2022-09-07T11:59:00.493Z,22.90
2022-09-07T12:02:04.605Z,23.00
2022-09-07T12:05:00.026Z,23.00
2022-09-07T12:07:35.938Z,22.80
2022-09-07T12:10:29.460Z,22.70
2022-09-07T12:13:20.760Z,22.50
2022-09-07T12:16:00.170Z,22.40
2022-09-07T12:18:50.985Z,22.60
2022-09-07T12:21:37.118Z,22.70
2022-09-07T12:24:04.261Z,22.90
2022-09-07T12:26:34.326Z,23.00
2022-09-07T12:29:03.202Z,23.10
2022-09-07T12:34:55.633Z,23.00
2022-09-07T12:37:40.554Z,22.60
2022-09-07T12:40:30.063Z,22.50
2022-09-07T12:43:15.323Z,22.90
2022-09-07T12:45:42.409Z,23.20
2022-09-07T12:48:19.494Z,23.30
2022-09-07T12:50:55.753Z,23.30
2022-09-07T12:53:54.228Z,23.40
2022-09-07T13:00:18.270Z,23.30
2022-09-07T13:02:57.177Z,23.20
2022-09-07T13:05:41.591Z,23.20
2022-09-07T13:08:38.021Z,23.40
2022-09-07T13:11:20.957Z,23.50
2022-09-07T13:14:09.581Z,23.70
2022-09-07T13:19:47.210Z,23.70
2022-09-07T13:22:29.472Z,23.70
2022-09-07T13:25:00.286Z,23.60
2022-09-07T13:28:00.367Z,23.80
2022-09-07T13:30:48.632Z,23.70
2022-09-07T13:33:24.542Z,23.80
2022-09-07T13:36:15.454Z,23.80
2022-09-07T13:38:42.381Z,23.70
2022-09-07T13:41:22.161Z,23.80
2022-09-07T13:43:57.109Z,23.80
2022-09-07T13:46:52.129Z,23.80
2022-09-07T13:49:37.637Z,23.70
2022-09-07T13:52:04.889Z,23.40
2022-09-07T13:54:43.958Z,23.30
2022-09-07T13:57:32.028Z,23.40
2022-09-07T13:59:59.386Z,23.70
2022-09-07T14:02:34.115Z,23.90
2022-09-07T14:05:03.703Z,24.00
2022-09-07T14:07:34.376Z,24.00
2022-09-07T14:10:17.926Z,24.10
2022-09-07T14:12:49.131Z,24.30
2022-09-07T14:15:27.589Z,24.10
2022-09-07T14:18:15.614Z,24.10
2022-09-07T14:20:51.260Z,24.10
2022-09-07T14:23:34.957Z,24.30
2022-09-07T14:26:19.254Z,24.20
2022-09-07T14:28:53.758Z,24.20
2022-09-07T14:31:23.269Z,24.10
2022-09-07T14:33:57.029Z,24.10
2022-09-07T14:36:45.717Z,24.20
2022-09-07T14:39:16.721Z,24.40
2022-09-07T14:41:44.517Z,24.10
2022-09-07T14:44:31.802Z,24.10
2022-09-07T14:47:06.183Z,24.30
2022-09-07T14:49:36.787Z,24.20
2022-09-07T14:52:04.409Z,24.20
2022-09-07T14:54:38.181Z,24.20
2022-09-07T14:57:09.837Z,24.00
2022-09-07T14:59:47.781Z,24.20
2022-09-07T15:02:25.690Z,24.10
2022-09-07T15:05:14.552Z,24.00
2022-09-07T15:07:47.771Z,23.70
2022-09-07T15:10:20.804Z,23.70
2022-09-07T15:13:08.492Z,23.70
2022-09-07T15:15:41.762Z,23.70
2022-09-07T15:19:02.786Z,23.50
2022-09-07T15:21:35.745Z,23.60
2022-09-07T15:24:07.401Z,23.60
2022-09-07T15:27:02.986Z,23.50
2022-09-07T15:29:33.490Z,23.40
2022-09-07T15:32:09.304Z,23.50
2022-09-07T15:34:36.658Z,23.50
2022-09-07T15:38:00.302Z,23.40
2022-09-07T15:39:51.117Z,23.40
2022-09-07T15:45:07.141Z,23.20
2022-09-07T15:47:52.214Z,23.40
2022-09-07T15:50:23.220Z,23.40
2022-09-07T15:52:50.744Z,23.30
2022-09-07T15:55:17.881Z,23.40
2022-09-07T15:57:50.113Z,23.20
2022-09-07T16:00:18.710Z,23.20
2022-09-07T16:03:04.973Z,23.40
2022-09-07T16:05:35.453Z,23.30
2022-09-07T16:10:55.163Z,23.20
2022-09-07T16:13:24.545Z,23.30
2022-09-07T16:15:51.681Z,23.30
2022-09-07T16:18:19.777Z,23.30
2022-09-07T16:20:47.365Z,23.30
2022-09-07T16:23:16.180Z,23.40
2022-09-07T16:25:58.652Z,23.40
2022-09-07T16:28:26.246Z,23.30
2022-09-07T16:30:53.378Z,23.30
2022-09-07T16:33:20.535Z,23.30
2022-09-07T16:36:16.982Z,23.40
2022-09-07T16:38:46.038Z,23.30
2022-09-07T16:41:14.525Z,23.30
2022-09-07T16:43:41.459Z,23.30
2022-09-07T16:46:10.627Z,23.30
2022-09-07T16:48:37.561Z,23.30
2022-09-07T16:51:05.057Z,23.30
2022-09-07T16:53:36.010Z,23.20
2022-09-07T16:56:05.860Z,23.10
2022-09-07T16:58:38.118Z,23.10
2022-09-07T17:01:06.722Z,23.10
2022-09-07T17:03:34.271Z,23.10
2022-09-07T17:06:01.836Z,23.00
2022-09-07T17:08:29.168Z,23.10
2022-09-07T17:11:17.210Z,23.10
2022-09-07T17:13:44.793Z,23.00
2022-09-07T17:16:14.083Z,23.00
2022-09-07T17:21:33.180Z,23.00
2022-09-07T17:24:03.795Z,22.90
2022-09-07T17:26:31.814Z,22.90
2022-09-07T17:29:00.800Z,22.90
2022-09-07T17:34:18.466Z,22.80
2022-09-07T17:36:45.475Z,22.70
2022-09-07T17:39:17.577Z,22.60
2022-09-07T17:41:46.526Z,22.60
2022-09-07T17:44:13.910Z,22.60
2022-09-07T17:46:40.793Z,22.60
2022-09-07T17:49:11.487Z,22.60
2022-09-07T17:51:38.410Z,22.50
2022-09-07T17:54:10.229Z,22.50
2022-09-07T17:56:39.078Z,22.50
2022-09-07T18:01:56.117Z,22.40
2022-09-07T18:04:23.171Z,22.30
2022-09-07T18:06:50.284Z,22.30
2022-09-07T18:09:20.048Z,22.20
2022-09-07T18:11:48.604Z,22.20
2022-09-07T18:14:16.782Z,22.10
2022-09-07T18:16:45.146Z,22.10
2022-09-07T18:19:12.571Z,22.00
2022-09-07T18:21:42.096Z,22.00
2022-09-07T18:24:14.164Z,21.90
2022-09-07T18:26:41.305Z,21.80
2022-09-07T18:29:22.265Z,21.70
2022-09-07T18:31:55.447Z,21.70
2022-09-07T18:34:22.541Z,21.70
2022-09-07T18:36:52.186Z,21.60
2022-09-07T18:39:19.349Z,21.60
2022-09-07T18:41:46.477Z,21.50
2022-09-07T18:47:01.614Z,21.50
2022-09-07T18:49:29.233Z,21.50
2022-09-07T18:54:43.176Z,21.40
2022-09-07T18:57:10.211Z,21.40
2022-09-07T18:59:37.362Z,21.30
2022-09-07T19:02:06.365Z,21.30
2022-09-07T19:07:26.177Z,21.30
2022-09-07T19:09:54.627Z,21.30
2022-09-07T19:12:22.296Z,21.20
2022-09-07T19:14:52.256Z,21.20
2022-09-07T19:17:19.682Z,21.20
2022-09-07T19:19:46.847Z,21.20
2022-09-07T19:22:14.064Z,21.10
2022-09-07T19:24:41.199Z,21.00
2022-09-07T19:27:08.334Z,21.00
2022-09-07T19:29:35.493Z,21.00
2022-09-07T19:32:08.946Z,20.90
2022-09-07T19:34:45.526Z,20.80
2022-09-07T19:37:13.595Z,20.70
2022-09-07T19:39:40.725Z,20.70
2022-09-07T19:42:08.046Z,20.60
2022-09-07T19:44:35.312Z,20.50
2022-09-07T19:47:05.389Z,20.50
2022-09-07T19:49:35.624Z,20.60
2022-09-07T19:52:08.793Z,20.60
2022-09-07T19:54:36.597Z,20.60
2022-09-07T19:57:03.913Z,20.70
2022-09-07T19:59:30.980Z,20.70
2022-09-07T20:01:57.925Z,20.60
2022-09-07T20:04:25.192Z,20.60
2022-09-07T20:06:52.376Z,20.60
2022-09-07T20:09:20.031Z,20.60
2022-09-07T20:11:47.952Z,20.70
2022-09-07T20:14:15.801Z,20.60
2022-09-07T20:16:42.935Z,20.60
2022-09-07T20:19:14.895Z,20.50
2022-09-07T20:21:42.534Z,20.50
2022-09-07T20:24:14.663Z,20.50
2022-09-07T20:26:41.658Z,20.50
2022-09-07T20:29:26.963Z,20.40
2022-09-07T20:31:55.682Z,20.40
2022-09-07T20:34:22.674Z,20.30
2022-09-07T20:36:50.257Z,20.20
2022-09-07T20:39:17.437Z,20.30
2022-09-07T20:41:44.558Z,20.30
2022-09-07T20:44:11.454Z,20.30
2022-09-07T20:46:38.533Z,20.30
2022-09-07T20:49:05.512Z,20.20
2022-09-07T20:51:35.356Z,20.20
2022-09-07T20:54:05.030Z,20.10
2022-09-07T20:56:32.006Z,20.10
2022-09-07T20:59:00.848Z,20.10
2022-09-07T21:01:29.030Z,20.00
2022-09-07T21:03:58.067Z,19.90
2022-09-07T21:06:26.091Z,19.80
2022-09-07T21:08:53.085Z,19.80
2022-09-07T21:11:22.217Z,19.80
2022-09-07T21:14:00.902Z,19.80
2022-09-07T21:16:28.976Z,19.80
2022-09-07T21:19:01.425Z,19.60
2022-09-07T21:21:30.686Z,19.70
2022-09-07T21:24:04.127Z,19.80
2022-09-07T21:26:31.952Z,19.80
2022-09-07T21:29:03.713Z,19.80
2022-09-07T21:31:31.845Z,19.80
2022-09-07T21:34:00.737Z,19.80
2022-09-07T21:36:27.979Z,19.80
2022-09-07T21:38:55.920Z,19.80
2022-09-07T21:41:24.139Z,19.70
2022-09-07T21:44:17.376Z,19.60
2022-09-07T21:46:47.539Z,19.60
2022-09-07T21:49:14.636Z,19.60
2022-09-07T21:51:41.647Z,19.60
2022-09-07T21:54:08.691Z,19.60
2022-09-07T21:56:35.708Z,19.50
2022-09-07T21:59:06.333Z,19.60
2022-09-07T22:01:33.626Z,19.70
2022-09-07T22:04:06.911Z,19.70
2022-09-07T22:06:34.372Z,19.80
2022-09-07T22:09:02.017Z,19.70
2022-09-07T22:11:30.489Z,19.80
2022-09-07T22:14:03.006Z,19.70
2022-09-07T22:16:33.906Z,19.60
2022-09-07T22:19:02.289Z,19.60
2022-09-07T22:21:30.722Z,19.60
2022-09-07T22:24:00.669Z,19.60
2022-09-07T22:26:33.175Z,19.60
2022-09-07T22:29:00.768Z,19.60
2022-09-07T22:31:30.499Z,19.50
2022-09-07T22:33:59.456Z,19.40
2022-09-07T22:36:33.014Z,19.30
2022-09-07T22:39:02.816Z,19.20
2022-09-07T22:41:37.283Z,19.20
2022-09-07T22:44:05.273Z,19.20
2022-09-07T22:46:35.719Z,19.20
2022-09-07T22:49:03.716Z,19.20
2022-09-07T22:51:31.083Z,19.20
2022-09-07T22:53:58.074Z,19.20
2022-09-07T22:56:27.781Z,19.20
2022-09-07T22:58:56.861Z,19.20
2022-09-07T23:01:24.158Z,19.30
2022-09-07T23:03:51.605Z,19.20
2022-09-07T23:06:35.765Z,19.20
2022-09-07T23:09:06.927Z,19.30
2022-09-07T23:11:34.064Z,19.30
2022-09-07T23:14:03.293Z,19.20
2022-09-07T23:16:30.833Z,19.10
2022-09-07T23:18:58.564Z,19.00
2022-09-07T23:21:27.406Z,19.00
2022-09-07T23:23:56.087Z,19.10
2022-09-07T23:26:23.806Z,19.00
2022-09-07T23:28:54.744Z,19.10
2022-09-07T23:31:22.505Z,19.10
2022-09-07T23:33:49.512Z,19.10
2022-09-07T23:36:17.477Z,19.00
2022-09-07T23:38:48.070Z,19.00
2022-09-07T23:41:17.872Z,19.00
2022-09-07T23:43:45.166Z,19.10
2022-09-07T23:46:12.635Z,19.00
2022-09-07T23:48:39.572Z,19.00
2022-09-07T23:51:06.530Z,19.00
2022-09-07T23:53:33.509Z,19.00
2022-09-07T23:56:00.868Z,19.00
2022-09-07T23:58:27.851Z,19.00
